Flight Track Log - Related Links

Times and Time Zones

All times are in EDT time to prevent confusion due to time zone crossing. See the N896RJ flight status page for this flight to view local times or setup timezone preferences in your user account.

Time Position Orientation Groundspeed Altitude Reporting Facility
EDT Latitude Longitude Course Direction KTS MPH feet Rate Location/Type
Sun 04:04:18 PM 47.5928 -122.3633 328° Northwest 263 303 2,500  Level Seattle Center
Sun 04:05:19 PM 47.6078 -122.4428 286° West 232 267 6,300 4,050 Climbing Seattle Center
Sun 04:06:18 PM 47.5417 -122.4419 180° South 265 305 10,600 3,197 Climbing Seattle Center
Sun 04:07:21 PM 47.4572 -122.3931 159° South 318 366 12,800 2,274 Climbing Seattle Center
Sun 04:08:22 PM 47.3658 -122.3383 158° South 358 412 15,300 2,311 Climbing Seattle Center
Sun 04:09:23 PM 47.2511 -122.2964 166° South 400 460 17,500 2,115 Climbing Seattle Center
Sun 04:10:24 PM 47.1386 -122.3042 183° South 411 473 19,600 1,721 Climbing Seattle Center
Sun 04:11:25 PM 47.0253 -122.3150 184° South 410 472 21,000 689 Climbing Seattle Center
Sun 04:12:26 PM 46.9053 -122.3253 183° South 426 490 21,000  Level Seattle Center
Sun 04:13:27 PM 46.7817 -122.3361 183° South 444 511 21,000  Level Seattle Center
Sun 04:14:28 PM 46.6597 -122.3508 185° South 443 510 21,000 -148 Level Seattle Center
Sun 04:15:29 PM 46.5411 -122.3622 184° South 431 496 20,700 -1,230 Descending Seattle Center
Sun 04:16:30 PM 46.4267 -122.3739 184° South 422 486 18,500 -2,325 Descending Seattle Center
Sun 04:16:49 PM 46.3714 -122.3786 183° South 422 486 17,600 -2,618 Descending Seattle Center
Sun 04:17:25 PM 46.3014 -122.3861 184° South 418 481 16,100 -2,155 Descending Seattle Center
Sun 04:18:32 PM 46.1947 -122.3942 183° South 405 466 13,900 -2,202 Descending Seattle Center
Sun 04:19:14 PM 46.1014 -122.4039 184° South 392 451 12,100 -1,967 Descending Seattle Center
Sun 04:19:33 PM 46.0869 -122.4072 189° South 390 449 11,900 -1,475 Descending Seattle Center
Sun 04:20:15 PM 46.0061 -122.4156 184° South 324 373 10,600 -1,672 Descending Seattle Center
Sun 04:20:34 PM 45.9933 -122.4158 181° South 343 395 10,200 -2,055 Descending Seattle Center
Sun 04:21:28 PM 45.9014 -122.4342 188° South 308 354 8,100 -2,375 Descending Seattle Center
Sun 04:22:10 PM 45.8486 -122.4622 200° South 294 338 6,400 -2,559 Descending Seattle Center
Sun 04:22:36 PM 45.8172 -122.4800 202° Southwest 290 334 5,200 -2,149 Descending Seattle Center
Sun 04:23:17 PM 45.7642 -122.5064 199° South 270 311 4,000 -1,279 Descending Seattle Center
Sun 04:23:37 PM 45.7469 -122.5175 204° Southwest 276 318 3,900 -109 Descending Seattle Center
Sun 04:24:12 PM 45.7033 -122.5375 198° South 263 303 3,900  Level Seattle Center
Sun 04:24:38 PM 45.6786 -122.5533 204° Southwest 266 306 3,900  Level Seattle Center
Sun 04:25:13 PM 45.6325 -122.5728 196° South 269 310 3,900  Level Seattle Center
Sun 04:25:39 PM 45.6081 -122.5881 204° Southwest 267 307 3,900  Level Seattle Center
Sun 04:26:13 PM 45.5661 -122.6092 199° South 249 287 3,900  Level Seattle Center
Sun 04:26:40 PM 45.5422 -122.6214 200° South 256 295 3,900  Level Seattle Center
Sun 04:27:14 PM 45.4992 -122.6428 199° South 253 291 3,900  Level Seattle Center
Sun 04:27:41 PM 45.4739 -122.6581 203° Southwest 262 302 3,900  Level Seattle Center
Sun 04:28:15 PM 45.4281 -122.6778 197° South 280 322 3,900  Level Seattle Center
Sun 04:28:42 PM 45.4022 -122.6928 202° Southwest 271 312 3,900 -358 Level Seattle Center
Sun 04:29:22 PM 45.3631 -122.7197 206° Southwest 198 228 3,500 -197 Descending Seattle Center
Sun 04:29:43 PM 45.3550 -122.7322 227° Southwest 211 243 3,700 -366 Climbing Seattle Center
Sun 04:30:44 PM 45.3058 -122.7858 217° Southwest 199 229 3,000 -689 Descending Seattle Center

Login

Don't have an account? Register now (free) for customized features, flight alerts, and more!